Rotterdam — V7OO5 — position and weather

sailwx.info

Track history (hours):
 
Tides and Currents Weather Stations Pressure Air Temp Water Temp Dewpoint Dewpoint Depression Visibility Wind Speed Wind Dir Waves Ship Positions

Rotterdam

Last reported at 2018-Jul-21 05:31 UTC. Time now 2018-Jul-21 19:28 UTC.
Position N 30°33' E 122°14'.

Length 293 m; draft 11.2 m.

Type: Ship (hazmat cat A). MMSI: 538006564.

Date/timePositionNaut miles runAvg speedWind from/ knotsBaromVisibWave heightAir tempDewpointWater temp
2018-Jul-21 05:31N 30°33' E 122°14'3 8.5
2018-Jul-21 05:12N 30°34' E 122°11'6 0.8
2018-Jul-20 21:57N 30°36' E 122°05'0 0.1
2018-Jul-20 15:44N 30°36' E 122°04'2 6.8
2018-Jul-20 15:30N 30°36' E 122°06'611.6
2018-Jul-20 15:00N 30°34' E 122°12'17 8.3
2018-Jul-20 12:55N 30°34' E 122°32'  
2018-Jul-17 04:46N 23°59' E 118°42'519.0
2018-Jul-17 04:29N 23°55' E 118°38'3319.4
2018-Jul-17 02:46N 23°34' E 118°10'520.6
2018-Jul-17 02:30N 23°30' E 118°05'1020.6
2018-Jul-17 02:00N 23°24' E 117°57'1620.4
2018-Jul-17 01:12N 23°13' E 117°43'419.9
2018-Jul-17 01:00N 23°10' E 117°40'  
2018-Jul-14 01:36N 22°28' E 119°46'218.5
2018-Jul-14 01:29N 22°28' E 119°49'918.3
2018-Jul-14 00:59N 22°29' E 119°58'817.4
2018-Jul-14 00:30N 22°31' E 120°07'815.6
2018-Jul-14 00:00N 22°33' E 120°15'3 6.8
2018-Jul-13 23:30N 22°34' E 120°19'1 0.3
2018-Jul-13 20:50N 22°34' E 120°19'0 0.0
2018-Jul-13 17:38N 22°34' E 120°19'0 0.0
2018-Jul-13 17:14N 22°34' E 120°19'0 0.0
2018-Jul-13 16:38N 22°34' E 120°19'0 0.3
2018-Jul-13 16:30N 22°34' E 120°19'1 2.7
2018-Jul-13 16:00N 22°33' E 120°18'2 4.0
2018-Jul-13 15:29N 22°32' E 120°16'0 0.3
2018-Jul-13 15:00N 22°32' E 120°16'0 0.1
2018-Jul-13 14:30N 22°32' E 120°16'0 0.2
2018-Jul-13 13:30N 22°32' E 120°16'0 0.0
2018-Jul-13 12:54N 22°32' E 120°16'0 0.0
2018-Jul-13 12:30N 22°32' E 120°16'0 0.0
2018-Jul-13 12:00N 22°32' E 120°16'0 0.0
2018-Jul-13 11:30N 22°32' E 120°16'0 0.0
2018-Jul-13 10:54N 22°32' E 120°16'0 0.2
2018-Jul-13 10:30N 22°32' E 120°16'0 0.0
2018-Jul-13 10:00N 22°32' E 120°16'0 0.3
2018-Jul-13 09:30N 22°32' E 120°16'0 0.1
2018-Jul-13 09:00N 22°32' E 120°16'0 0.0
2018-Jul-13 08:30N 22°32' E 120°16'0 0.1
2018-Jul-13 08:00N 22°32' E 120°16'0 0.1
2018-Jul-13 07:30N 22°32' E 120°16'0 0.0
2018-Jul-13 07:00N 22°32' E 120°16'0 0.0
2018-Jul-13 06:24N 22°32' E 120°16'0 0.0
2018-Jul-13 06:00N 22°32' E 120°16'0 0.0
2018-Jul-13 05:30N 22°32' E 120°16'0 0.0
2018-Jul-13 05:00N 22°32' E 120°16'0 0.0
2018-Jul-13 04:30N 22°32' E 120°16'0 0.0
2018-Jul-13 04:00N 22°32' E 120°16'0 0.0
2018-Jul-13 03:30N 22°32' E 120°16'0 0.0
2018-Jul-13 03:00N 22°32' E 120°16'0 0.0
2018-Jul-13 02:24N 22°32' E 120°16'0 0.0
2018-Jul-13 01:54N 22°32' E 120°16'0 0.0
2018-Jul-13 01:30N 22°32' E 120°16'0 0.0
2018-Jul-13 01:00N 22°32' E 120°16'0 0.0
2018-Jul-13 00:30N 22°32' E 120°16'0 0.0
2018-Jul-12 16:12N 22°32' E 120°16'0 1.1
2018-Jul-12 15:59N 22°32' E 120°16'3 6.1
2018-Jul-12 15:29N 22°31' E 120°13'4 9.0
2018-Jul-12 15:00N 22°30' E 120°08'612.0
2018-Jul-12 14:29N 22°29' E 120°01'611.8
2018-Jul-12 14:00N 22°28' E 119°55'612.8
2018-Jul-12 13:30N 22°27' E 119°49'612.5
2018-Jul-12 13:00N 22°26' E 119°42'  
Track history (hours):
 
Tides and Currents Weather Stations Pressure Air Temp Water Temp Dewpoint Dewpoint Depression Visibility Wind Speed Wind Dir Waves Ship Positions

Rotterdam

Last reported at 2018-Jul-21 05:31 UTC. Time now 2018-Jul-21 19:28 UTC.
Position N 30°33' E 122°14'.

Length 293 m; draft 11.2 m.

Type: Ship (hazmat cat A). MMSI: 538006564.

Date/timePositionNaut miles runAvg speedWind from/ knotsBaromVisibWave heightAir tempDewpointWater temp
2018-Jul-21 05:31N 30°33' E 122°14'3 8.5
2018-Jul-21 05:12N 30°34' E 122°11'6 0.8
2018-Jul-20 21:57N 30°36' E 122°05'0 0.1
2018-Jul-20 15:44N 30°36' E 122°04'2 6.8
2018-Jul-20 15:30N 30°36' E 122°06'611.6
2018-Jul-20 15:00N 30°34' E 122°12'17 8.3
2018-Jul-20 12:55N 30°34' E 122°32'  
2018-Jul-17 04:46N 23°59' E 118°42'519.0
2018-Jul-17 04:29N 23°55' E 118°38'3319.4
2018-Jul-17 02:46N 23°34' E 118°10'520.6
2018-Jul-17 02:30N 23°30' E 118°05'1020.6
2018-Jul-17 02:00N 23°24' E 117°57'1620.4
2018-Jul-17 01:12N 23°13' E 117°43'419.9
2018-Jul-17 01:00N 23°10' E 117°40'  
2018-Jul-14 01:36N 22°28' E 119°46'218.5
2018-Jul-14 01:29N 22°28' E 119°49'918.3
2018-Jul-14 00:59N 22°29' E 119°58'817.4
2018-Jul-14 00:30N 22°31' E 120°07'815.6
2018-Jul-14 00:00N 22°33' E 120°15'3 6.8
2018-Jul-13 23:30N 22°34' E 120°19'1 0.3
2018-Jul-13 20:50N 22°34' E 120°19'0 0.0
2018-Jul-13 17:38N 22°34' E 120°19'0 0.0
2018-Jul-13 17:14N 22°34' E 120°19'0 0.0
2018-Jul-13 16:38N 22°34' E 120°19'0 0.3
2018-Jul-13 16:30N 22°34' E 120°19'1 2.7
2018-Jul-13 16:00N 22°33' E 120°18'2 4.0
2018-Jul-13 15:29N 22°32' E 120°16'0 0.3
2018-Jul-13 15:00N 22°32' E 120°16'0 0.1
2018-Jul-13 14:30N 22°32' E 120°16'0 0.2
2018-Jul-13 13:30N 22°32' E 120°16'0 0.0
2018-Jul-13 12:54N 22°32' E 120°16'0 0.0
2018-Jul-13 12:30N 22°32' E 120°16'0 0.0
2018-Jul-13 12:00N 22°32' E 120°16'0 0.0
2018-Jul-13 11:30N 22°32' E 120°16'0 0.0
2018-Jul-13 10:54N 22°32' E 120°16'0 0.2
2018-Jul-13 10:30N 22°32' E 120°16'0 0.0
2018-Jul-13 10:00N 22°32' E 120°16'0 0.3
2018-Jul-13 09:30N 22°32' E 120°16'0 0.1
2018-Jul-13 09:00N 22°32' E 120°16'0 0.0
2018-Jul-13 08:30N 22°32' E 120°16'0 0.1
2018-Jul-13 08:00N 22°32' E 120°16'0 0.1
2018-Jul-13 07:30N 22°32' E 120°16'0 0.0
2018-Jul-13 07:00N 22°32' E 120°16'0 0.0
2018-Jul-13 06:24N 22°32' E 120°16'0 0.0
2018-Jul-13 06:00N 22°32' E 120°16'0 0.0
2018-Jul-13 05:30N 22°32' E 120°16'0 0.0
2018-Jul-13 05:00N 22°32' E 120°16'0 0.0
2018-Jul-13 04:30N 22°32' E 120°16'0 0.0
2018-Jul-13 04:00N 22°32' E 120°16'0 0.0
2018-Jul-13 03:30N 22°32' E 120°16'0 0.0
2018-Jul-13 03:00N 22°32' E 120°16'0 0.0
2018-Jul-13 02:24N 22°32' E 120°16'0 0.0
2018-Jul-13 01:54N 22°32' E 120°16'0 0.0
2018-Jul-13 01:30N 22°32' E 120°16'0 0.0
2018-Jul-13 01:00N 22°32' E 120°16'0 0.0
2018-Jul-13 00:30N 22°32' E 120°16'0 0.0
2018-Jul-12 16:12N 22°32' E 120°16'0 1.1
2018-Jul-12 15:59N 22°32' E 120°16'3 6.1
2018-Jul-12 15:29N 22°31' E 120°13'4 9.0
2018-Jul-12 15:00N 22°30' E 120°08'612.0
2018-Jul-12 14:29N 22°29' E 120°01'611.8
2018-Jul-12 14:00N 22°28' E 119°55'612.8
2018-Jul-12 13:30N 22°27' E 119°49'612.5
2018-Jul-12 13:00N 22°26' E 119°42'  

Dump ship's entire track history